createdAt,value
2023-04-07T00:00:55.988Z,7.98
2023-04-07T00:03:23.941Z,7.34
2023-04-07T00:05:51.295Z,6.64
2023-04-07T00:08:18.446Z,7.43
2023-04-07T00:10:45.970Z,7.59
2023-04-07T00:13:13.072Z,7.90
2023-04-07T00:15:40.286Z,8.23
2023-04-07T00:18:07.472Z,6.76
2023-04-07T00:20:34.710Z,6.75
2023-04-07T00:23:01.848Z,7.52
2023-04-07T00:25:28.917Z,6.96
2023-04-07T00:27:56.135Z,7.31
2023-04-07T00:30:23.492Z,6.95
2023-04-07T00:32:52.037Z,7.20
2023-04-07T00:35:19.438Z,7.76
2023-04-07T00:37:47.432Z,7.10
2023-04-07T00:40:14.773Z,7.13
2023-04-07T00:42:42.146Z,7.11
2023-04-07T00:45:10.990Z,5.99
2023-04-07T00:47:38.657Z,6.15
2023-04-07T00:50:06.483Z,6.49
2023-04-07T00:52:34.371Z,6.37
2023-04-07T00:55:01.897Z,6.94
2023-04-07T00:57:29.071Z,7.58
2023-04-07T00:59:56.756Z,8.22
2023-04-07T01:02:37.372Z,8.29
2023-04-07T01:05:15.949Z,7.86
2023-04-07T01:08:04.535Z,7.62
2023-04-07T01:10:44.199Z,7.39
2023-04-07T01:13:42.873Z,7.49
2023-04-07T01:16:31.609Z,7.13
2023-04-07T01:19:11.982Z,7.58
2023-04-07T01:21:42.215Z,7.69
2023-04-07T01:24:48.311Z,7.63
2023-04-07T01:27:48.945Z,7.28
2023-04-07T01:30:17.280Z,7.14
2023-04-07T01:32:47.396Z,7.05
2023-04-07T01:35:15.362Z,6.66
2023-04-07T01:37:45.952Z,6.77
2023-04-07T01:40:13.612Z,6.92
2023-04-07T01:42:43.184Z,6.33
2023-04-07T01:45:11.008Z,6.56
2023-04-07T01:47:39.735Z,6.10
2023-04-07T01:50:11.426Z,6.50
2023-04-07T01:52:40.488Z,6.64
2023-04-07T01:55:08.384Z,6.40
2023-04-07T01:57:39.181Z,6.93
2023-04-07T02:00:13.274Z,7.34
2023-04-07T02:02:48.806Z,6.91
2023-04-07T02:05:20.825Z,6.65
2023-04-07T02:08:01.893Z,5.43
2023-04-07T02:10:30.429Z,5.63
2023-04-07T02:13:02.151Z,6.15
2023-04-07T02:15:32.408Z,5.70
2023-04-07T02:18:01.640Z,5.92
2023-04-07T02:20:30.279Z,5.90
2023-04-07T02:22:58.159Z,5.75
2023-04-07T02:25:29.194Z,5.34
2023-04-07T02:27:58.958Z,5.79
2023-04-07T02:30:26.634Z,6.19
2023-04-07T02:32:54.268Z,5.60
2023-04-07T02:35:21.658Z,6.10
2023-04-07T02:37:49.071Z,6.15
2023-04-07T02:40:16.689Z,5.48
2023-04-07T02:42:44.253Z,5.85
2023-04-07T02:45:11.914Z,4.57
2023-04-07T02:47:40.289Z,5.36
2023-04-07T02:50:08.015Z,5.62
2023-04-07T02:52:36.204Z,5.44
2023-04-07T02:55:09.087Z,5.37
2023-04-07T02:57:36.383Z,5.23
2023-04-07T03:00:07.454Z,5.85
2023-04-07T03:02:54.781Z,5.74
2023-04-07T03:05:22.414Z,5.91
2023-04-07T03:07:49.618Z,6.31
2023-04-07T03:10:17.044Z,6.04
2023-04-07T03:12:44.659Z,6.28
2023-04-07T03:15:12.150Z,6.31
2023-04-07T03:17:42.494Z,6.13
2023-04-07T03:20:10.894Z,6.04
2023-04-07T03:22:38.531Z,5.80
2023-04-07T03:25:10.202Z,5.67
2023-04-07T03:27:37.349Z,5.40
2023-04-07T03:30:06.731Z,5.20
2023-04-07T03:32:33.851Z,4.82
2023-04-07T03:35:01.198Z,4.73
2023-04-07T03:37:28.286Z,4.52
2023-04-07T03:39:55.849Z,4.89
2023-04-07T03:42:26.726Z,5.49
2023-04-07T03:45:00.161Z,5.75
2023-04-07T03:47:27.526Z,6.17
2023-04-07T03:49:59.781Z,6.42
2023-04-07T03:52:28.197Z,6.01
2023-04-07T03:55:02.240Z,5.53
2023-04-07T03:57:32.231Z,5.51
2023-04-07T03:59:59.539Z,5.52
2023-04-07T04:02:31.504Z,4.67
2023-04-07T04:04:59.511Z,5.58
2023-04-07T04:07:27.665Z,5.50
2023-04-07T04:10:00.268Z,5.73
2023-04-07T04:12:29.083Z,5.16
2023-04-07T04:15:05.288Z,5.53
2023-04-07T04:17:32.794Z,5.60
2023-04-07T04:20:00.070Z,5.44
2023-04-07T04:22:41.512Z,5.60
2023-04-07T04:25:09.237Z,5.23
2023-04-07T04:27:37.192Z,5.78
2023-04-07T04:30:11.426Z,5.88
2023-04-07T04:32:49.954Z,6.38
2023-04-07T04:35:21.119Z,6.31
2023-04-07T04:38:01.461Z,6.37
2023-04-07T04:40:28.638Z,6.78
2023-04-07T04:42:56.099Z,6.31
2023-04-07T04:45:24.580Z,5.83
2023-04-07T04:47:51.909Z,6.00
2023-04-07T04:50:19.258Z,5.99
2023-04-07T04:52:47.290Z,6.00
2023-04-07T04:55:21.599Z,5.47
2023-04-07T04:57:49.200Z,6.28
2023-04-07T05:00:22.364Z,4.75
2023-04-07T05:02:55.710Z,4.47
2023-04-07T05:05:23.535Z,4.18
2023-04-07T05:07:52.480Z,4.33
2023-04-07T05:10:20.790Z,4.28
2023-04-07T05:12:51.221Z,4.95
2023-04-07T05:15:18.510Z,4.34
2023-04-07T05:17:50.843Z,4.84
2023-04-07T05:20:23.418Z,5.58
2023-04-07T05:22:50.803Z,6.35
2023-04-07T05:25:20.088Z,6.87
2023-04-07T05:27:50.876Z,7.32
2023-04-07T05:30:18.768Z,7.66
2023-04-07T05:32:46.281Z,6.77
2023-04-07T05:35:22.921Z,7.44
2023-04-07T05:37:55.173Z,8.02
2023-04-07T05:40:22.471Z,8.39
2023-04-07T05:42:50.617Z,8.18
2023-04-07T05:45:17.819Z,7.50
2023-04-07T05:47:51.047Z,7.46
2023-04-07T05:50:24.857Z,8.23
2023-04-07T05:52:52.106Z,7.39
2023-04-07T05:55:23.389Z,8.15
2023-04-07T05:57:51.954Z,8.89
2023-04-07T06:00:22.279Z,8.77
2023-04-07T06:02:59.997Z,8.95
2023-04-07T06:05:28.005Z,9.85
2023-04-07T06:07:56.777Z,10.15
2023-04-07T06:10:27.048Z,10.48
2023-04-07T06:12:54.197Z,10.87
2023-04-07T06:15:21.574Z,11.13
2023-04-07T06:17:48.769Z,10.19
2023-04-07T06:20:15.961Z,10.58
2023-04-07T06:22:43.616Z,9.95
2023-04-07T06:25:10.971Z,10.84
2023-04-07T06:27:38.100Z,11.08
2023-04-07T06:30:06.015Z,11.31
2023-04-07T06:32:33.810Z,10.25
2023-04-07T06:35:01.952Z,10.63
2023-04-07T06:37:29.337Z,11.24
2023-04-07T06:39:56.647Z,11.31
2023-04-07T06:42:23.781Z,11.58
2023-04-07T06:45:00.229Z,10.88
2023-04-07T06:47:27.349Z,10.43
2023-04-07T06:49:54.442Z,11.20
2023-04-07T06:52:22.003Z,11.70
2023-04-07T06:54:49.088Z,11.22
2023-04-07T06:57:16.195Z,11.86
2023-04-07T06:59:43.310Z,11.98
2023-04-07T07:02:10.683Z,12.15
2023-04-07T07:04:38.184Z,11.18
2023-04-07T07:07:05.342Z,11.91
2023-04-07T07:09:32.466Z,12.69
2023-04-07T07:11:59.559Z,12.48
2023-04-07T07:14:26.656Z,13.56
2023-04-07T07:16:53.743Z,13.64
2023-04-07T07:19:20.950Z,13.19
2023-04-07T07:21:48.199Z,14.27
2023-04-07T07:24:15.710Z,13.62
2023-04-07T07:26:44.176Z,14.37
2023-04-07T07:29:11.928Z,13.78
2023-04-07T07:31:39.040Z,14.04
2023-04-07T07:34:06.171Z,13.70
2023-04-07T07:36:33.330Z,13.68
2023-04-07T07:39:00.835Z,13.87
2023-04-07T07:41:27.915Z,13.94
2023-04-07T07:43:55.081Z,14.00
2023-04-07T07:46:24.071Z,12.44
2023-04-07T07:48:51.227Z,13.32
2023-04-07T07:51:18.700Z,13.43
2023-04-07T07:53:46.718Z,12.84
2023-04-07T07:56:14.313Z,13.38
2023-04-07T07:58:41.890Z,13.47
2023-04-07T08:01:09.075Z,14.11
2023-04-07T08:03:36.331Z,14.03
2023-04-07T08:06:03.632Z,12.47
2023-04-07T08:08:30.725Z,12.26
2023-04-07T08:10:57.907Z,14.32
2023-04-07T08:13:24.973Z,14.91
2023-04-07T08:15:52.134Z,14.58
2023-04-07T08:18:19.314Z,14.70
2023-04-07T08:20:46.984Z,15.51
2023-04-07T08:23:14.082Z,16.09
2023-04-07T08:25:41.309Z,16.31
2023-04-07T08:28:08.922Z,16.29
2023-04-07T08:30:36.733Z,16.76
2023-04-07T08:33:07.163Z,16.43
2023-04-07T08:35:35.165Z,16.94
2023-04-07T08:38:03.856Z,17.12
2023-04-07T08:40:32.838Z,17.24
2023-04-07T08:43:01.980Z,16.67
2023-04-07T08:45:32.179Z,16.03
2023-04-07T08:48:04.684Z,15.35
2023-04-07T08:50:33.003Z,15.88
2023-04-07T08:53:07.465Z,15.13
2023-04-07T08:55:36.364Z,16.26
2023-04-07T08:58:04.601Z,17.34
2023-04-07T09:00:32.996Z,17.03
2023-04-07T09:03:01.284Z,17.85
2023-04-07T09:05:31.224Z,17.35
2023-04-07T09:07:58.476Z,17.40
2023-04-07T09:10:25.836Z,18.23
2023-04-07T09:12:52.927Z,18.20
2023-04-07T09:15:22.593Z,18.84
2023-04-07T09:17:49.925Z,19.11
2023-04-07T09:20:18.106Z,18.14
2023-04-07T09:22:48.624Z,15.95
2023-04-07T09:25:20.028Z,17.95
2023-04-07T09:28:02.127Z,18.39
2023-04-07T09:30:31.526Z,18.12
2023-04-07T09:32:59.974Z,17.41
2023-04-07T09:35:29.162Z,17.55
2023-04-07T09:38:07.189Z,17.55
2023-04-07T09:40:36.135Z,17.44
2023-04-07T09:43:04.714Z,18.68
2023-04-07T09:45:35.800Z,18.37
2023-04-07T09:48:20.934Z,18.73
2023-04-07T09:50:52.293Z,18.81
2023-04-07T09:53:20.725Z,18.31
2023-04-07T09:55:49.154Z,18.59
2023-04-07T09:58:17.160Z,18.63
2023-04-07T10:00:46.198Z,18.71
2023-04-07T10:03:14.332Z,18.71
2023-04-07T10:05:41.812Z,17.81
2023-04-07T10:08:10.601Z,18.50
2023-04-07T10:10:43.487Z,18.04
2023-04-07T10:13:12.803Z,18.14
2023-04-07T10:15:40.299Z,18.71
2023-04-07T10:18:09.264Z,18.38
2023-04-07T10:20:43.661Z,19.00
2023-04-07T10:23:44.195Z,19.39
2023-04-07T10:26:13.203Z,18.94
2023-04-07T10:28:42.819Z,19.43
2023-04-07T10:31:11.030Z,19.17
2023-04-07T10:33:50.143Z,19.51
2023-04-07T10:36:20.701Z,19.56
2023-04-07T10:39:09.636Z,19.60
2023-04-07T10:41:38.622Z,20.07
2023-04-07T10:44:07.135Z,19.73
2023-04-07T10:46:46.364Z,19.70
2023-04-07T10:49:17.003Z,19.72
2023-04-07T10:52:13.096Z,20.13
2023-04-07T10:54:41.147Z,20.81
2023-04-07T10:57:13.966Z,20.27
2023-04-07T11:00:12.807Z,21.16
2023-04-07T11:02:41.594Z,21.30
2023-04-07T11:05:09.183Z,21.70
2023-04-07T11:08:07.555Z,21.51
2023-04-07T11:10:36.100Z,20.10
2023-04-07T11:13:09.878Z,20.39
2023-04-07T11:15:40.423Z,20.21
2023-04-07T11:18:19.632Z,21.36
2023-04-07T11:20:56.016Z,22.14
2023-04-07T11:23:25.770Z,22.60
2023-04-07T11:26:03.127Z,22.61
2023-04-07T11:28:31.478Z,22.73
2023-04-07T11:31:00.538Z,23.34
2023-04-07T11:33:30.536Z,23.29
2023-04-07T11:36:00.276Z,23.62
2023-04-07T11:38:38.853Z,23.13
2023-04-07T11:41:14.502Z,21.42
2023-04-07T11:43:42.685Z,21.97
2023-04-07T11:46:15.507Z,22.76
2023-04-07T11:48:44.879Z,23.52
2023-04-07T11:51:26.681Z,23.01
2023-04-07T11:53:57.754Z,22.62
2023-04-07T11:56:25.327Z,21.96
2023-04-07T11:58:54.304Z,21.96
2023-04-07T12:01:25.049Z,22.07
2023-04-07T12:04:04.335Z,22.75
2023-04-07T12:06:35.505Z,22.38
2023-04-07T12:09:07.758Z,21.76
2023-04-07T12:11:36.874Z,22.74
2023-04-07T12:14:05.575Z,24.12
2023-04-07T12:16:33.526Z,25.33
2023-04-07T12:19:00.612Z,23.85
2023-04-07T12:21:27.941Z,24.94
2023-04-07T12:23:55.239Z,23.99
2023-04-07T12:26:23.544Z,24.70
2023-04-07T12:28:50.691Z,25.34
2023-04-07T12:31:18.493Z,25.71
2023-04-07T12:33:45.734Z,25.89
2023-04-07T12:36:13.268Z,25.63
2023-04-07T12:38:40.767Z,26.11
2023-04-07T12:41:08.871Z,26.10
2023-04-07T12:43:36.241Z,26.18
2023-04-07T12:46:04.292Z,26.10
2023-04-07T12:48:31.402Z,26.32
2023-04-07T12:50:58.769Z,26.46
2023-04-07T12:53:26.213Z,26.82
2023-04-07T12:55:53.815Z,26.85
2023-04-07T12:58:20.907Z,27.48
2023-04-07T13:00:49.172Z,27.21
2023-04-07T13:03:16.442Z,26.76
2023-04-07T13:05:43.979Z,26.31
2023-04-07T13:08:11.444Z,26.32
2023-04-07T13:10:39.561Z,27.31
2023-04-07T13:13:06.661Z,27.02
2023-04-07T13:15:34.549Z,26.94
2023-04-07T13:18:01.651Z,26.90
2023-04-07T13:20:30.651Z,26.54
2023-04-07T13:23:07.448Z,26.64
2023-04-07T13:25:37.792Z,26.41
2023-04-07T13:28:05.471Z,26.65
2023-04-07T13:30:33.396Z,27.12
2023-04-07T13:33:00.640Z,27.30
2023-04-07T13:35:30.790Z,27.91
2023-04-07T13:37:57.841Z,28.42
2023-04-07T13:40:25.849Z,29.46
2023-04-07T13:42:53.397Z,29.12
2023-04-07T13:45:21.290Z,28.86
2023-04-07T13:47:48.454Z,27.71
2023-04-07T13:50:16.562Z,28.28
2023-04-07T13:52:43.585Z,29.75
2023-04-07T13:55:11.944Z,30.27
2023-04-07T13:57:39.258Z,29.03
2023-04-07T14:00:07.745Z,28.83
2023-04-07T14:02:36.061Z,28.47
2023-04-07T14:05:04.002Z,27.89
2023-04-07T14:07:31.368Z,27.64
2023-04-07T14:09:58.830Z,27.37
2023-04-07T14:12:26.153Z,27.78
2023-04-07T14:14:55.110Z,28.19
2023-04-07T14:17:22.432Z,28.17
2023-04-07T14:19:49.622Z,27.97
2023-04-07T14:22:16.801Z,27.86
2023-04-07T14:24:44.069Z,27.97
2023-04-07T14:27:11.413Z,27.52
2023-04-07T14:29:38.508Z,27.41
2023-04-07T14:32:05.729Z,27.28
2023-04-07T14:34:32.876Z,26.61
2023-04-07T14:37:00.345Z,26.43
2023-04-07T14:39:27.587Z,27.04
2023-04-07T14:41:54.842Z,28.46
2023-04-07T14:44:22.444Z,28.23
2023-04-07T14:46:49.748Z,28.25
2023-04-07T14:49:17.020Z,29.09
2023-04-07T14:51:44.918Z,29.91
2023-04-07T14:54:12.005Z,30.56
2023-04-07T14:56:39.103Z,31.13
2023-04-07T14:59:06.248Z,30.72
2023-04-07T15:01:33.528Z,31.49
2023-04-07T15:04:01.240Z,31.16
2023-04-07T15:06:28.384Z,31.02
2023-04-07T15:08:55.628Z,30.51
2023-04-07T15:11:22.755Z,29.70
2023-04-07T15:13:50.368Z,29.98
2023-04-07T15:16:18.034Z,30.39
2023-04-07T15:18:47.429Z,30.52
2023-04-07T15:21:15.414Z,27.35
2023-04-07T15:23:42.873Z,27.14
2023-04-07T15:26:10.665Z,27.65
2023-04-07T15:28:38.397Z,27.42
2023-04-07T15:31:09.101Z,28.15
2023-04-07T15:33:37.633Z,28.52
2023-04-07T15:36:05.775Z,27.11
2023-04-07T15:38:33.050Z,26.66
2023-04-07T15:41:00.189Z,25.23
2023-04-07T15:43:27.377Z,25.35
2023-04-07T15:45:55.613Z,26.10
2023-04-07T15:48:22.717Z,27.16
2023-04-07T15:50:49.928Z,28.26
2023-04-07T15:53:17.206Z,28.25
2023-04-07T15:55:44.592Z,28.54
2023-04-07T15:58:11.845Z,28.00
2023-04-07T16:00:40.190Z,28.91
2023-04-07T16:03:07.492Z,28.76
2023-04-07T16:05:34.815Z,28.28
2023-04-07T16:08:01.970Z,26.71
2023-04-07T16:10:29.136Z,26.46
2023-04-07T16:12:56.273Z,25.61
2023-04-07T16:15:36.827Z,25.09
2023-04-07T16:18:09.024Z,24.38
2023-04-07T16:20:36.317Z,23.21
2023-04-07T16:23:03.427Z,22.63
2023-04-07T16:25:31.154Z,21.80
2023-04-07T16:27:58.422Z,20.55
2023-04-07T16:30:25.771Z,20.12
2023-04-07T16:32:52.932Z,19.82
2023-04-07T16:35:20.168Z,19.57
2023-04-07T16:37:47.471Z,19.43
2023-04-07T16:40:14.819Z,20.01
2023-04-07T16:42:42.096Z,19.32
2023-04-07T16:45:09.640Z,19.65
2023-04-07T16:47:38.456Z,19.92
2023-04-07T16:50:06.103Z,19.67
2023-04-07T16:52:33.405Z,19.76
2023-04-07T16:55:01.354Z,19.86
2023-04-07T16:57:28.496Z,19.86
2023-04-07T16:59:55.760Z,19.52
2023-04-07T17:02:23.268Z,19.30
2023-04-07T17:04:50.693Z,19.48
2023-04-07T17:07:19.395Z,18.83
2023-04-07T17:09:46.527Z,18.82
2023-04-07T17:12:14.013Z,18.36
2023-04-07T17:14:41.845Z,18.46
2023-04-07T17:17:08.992Z,18.75
2023-04-07T17:19:36.394Z,18.76
2023-04-07T17:22:03.601Z,18.27
2023-04-07T17:24:30.861Z,18.19
2023-04-07T17:26:58.134Z,18.27
2023-04-07T17:29:30.384Z,18.20
2023-04-07T17:31:57.569Z,17.97
2023-04-07T17:34:24.824Z,17.74
2023-04-07T17:36:52.226Z,17.90
2023-04-07T17:39:19.436Z,17.77
2023-04-07T17:41:47.845Z,17.61
2023-04-07T17:44:15.291Z,17.66
2023-04-07T17:46:42.491Z,17.74
2023-04-07T17:49:09.659Z,17.28
2023-04-07T17:51:36.825Z,17.50
2023-04-07T17:54:04.110Z,17.63
2023-04-07T17:56:31.333Z,17.55
2023-04-07T17:58:58.415Z,17.68
2023-04-07T18:01:25.883Z,17.49
2023-04-07T18:03:53.866Z,17.51
2023-04-07T18:06:21.287Z,17.18
2023-04-07T18:08:48.802Z,17.54
2023-04-07T18:11:17.007Z,17.49
2023-04-07T18:13:44.203Z,17.59
2023-04-07T18:16:13.495Z,17.79
2023-04-07T18:18:40.794Z,17.75
2023-04-07T18:21:07.976Z,17.46
2023-04-07T18:23:35.266Z,17.46
2023-04-07T18:26:06.843Z,16.58
2023-04-07T18:28:34.696Z,16.74
2023-04-07T18:31:04.342Z,16.94
2023-04-07T18:33:33.321Z,16.81
2023-04-07T18:36:03.948Z,16.69
2023-04-07T18:38:31.224Z,16.47
2023-04-07T18:40:58.535Z,17.04
2023-04-07T18:43:28.246Z,16.83
2023-04-07T18:45:55.418Z,16.42
2023-04-07T18:48:22.533Z,16.47
2023-04-07T18:50:52.413Z,16.62
2023-04-07T18:53:21.033Z,16.41
2023-04-07T18:55:48.814Z,16.40
2023-04-07T18:58:16.272Z,16.04
2023-04-07T19:00:44.340Z,16.45
2023-04-07T19:03:12.127Z,16.44
2023-04-07T19:05:42.658Z,16.44
2023-04-07T19:08:10.151Z,16.26
2023-04-07T19:10:37.309Z,16.25
2023-04-07T19:13:04.891Z,16.60
2023-04-07T19:15:41.017Z,16.00
2023-04-07T19:18:11.542Z,15.75
2023-04-07T19:20:38.899Z,16.37
2023-04-07T19:23:06.465Z,16.96
2023-04-07T19:25:33.710Z,16.18
2023-04-07T19:28:01.725Z,16.65
2023-04-07T19:30:28.908Z,16.80
2023-04-07T19:32:57.013Z,16.80
2023-04-07T19:35:24.231Z,16.88
2023-04-07T19:37:52.646Z,17.03
2023-04-07T19:40:20.115Z,16.61
2023-04-07T19:42:47.397Z,16.15
2023-04-07T19:45:14.514Z,16.35
2023-04-07T19:47:42.673Z,16.72
2023-04-07T19:50:12.010Z,16.66
2023-04-07T19:52:39.282Z,16.76
2023-04-07T19:55:07.895Z,16.65
2023-04-07T19:57:36.228Z,16.26
2023-04-07T20:00:04.663Z,16.25
2023-04-07T20:02:31.915Z,15.96
2023-04-07T20:04:59.229Z,16.42
2023-04-07T20:07:26.702Z,16.35
2023-04-07T20:09:57.628Z,16.67
2023-04-07T20:12:25.052Z,16.58
2023-04-07T20:14:52.114Z,16.56
2023-04-07T20:17:20.351Z,16.58
2023-04-07T20:19:48.229Z,16.47
2023-04-07T20:22:15.364Z,16.73
2023-04-07T20:24:42.485Z,16.60
2023-04-07T20:27:09.628Z,16.46
2023-04-07T20:29:37.005Z,16.29
2023-04-07T20:32:04.070Z,15.99
2023-04-07T20:34:31.407Z,15.74
2023-04-07T20:36:58.590Z,15.39
2023-04-07T20:39:25.816Z,15.98
2023-04-07T20:41:52.914Z,15.54
2023-04-07T20:44:20.325Z,15.66
2023-04-07T20:46:47.643Z,16.04
2023-04-07T20:49:15.043Z,15.70
2023-04-07T20:51:42.249Z,15.67
2023-04-07T20:54:09.331Z,16.03
2023-04-07T20:56:37.184Z,16.18
2023-04-07T20:59:04.260Z,16.38
2023-04-07T21:01:31.791Z,16.43
2023-04-07T21:04:01.168Z,16.43
2023-04-07T21:06:28.330Z,16.24
2023-04-07T21:08:55.491Z,16.17
2023-04-07T21:11:22.744Z,16.22
2023-04-07T21:13:49.885Z,16.05
2023-04-07T21:16:17.140Z,15.43
2023-04-07T21:18:44.678Z,16.00
2023-04-07T21:21:11.829Z,15.88
2023-04-07T21:23:38.966Z,15.66
2023-04-07T21:26:06.336Z,15.93
2023-04-07T21:28:36.425Z,15.76
2023-04-07T21:31:04.710Z,15.87
2023-04-07T21:33:32.081Z,15.28
2023-04-07T21:36:04.047Z,15.43
2023-04-07T21:38:31.830Z,15.56
2023-04-07T21:40:59.483Z,15.66
2023-04-07T21:43:29.229Z,15.70
2023-04-07T21:45:56.499Z,15.54
2023-04-07T21:48:24.123Z,15.65
2023-04-07T21:50:52.473Z,14.68
2023-04-07T21:53:19.717Z,14.07
2023-04-07T21:55:46.854Z,13.56
2023-04-07T21:58:14.005Z,13.81
2023-04-07T22:00:41.248Z,14.32
2023-04-07T22:03:08.696Z,14.24
2023-04-07T22:05:36.049Z,14.61
2023-04-07T22:08:03.567Z,14.08
2023-04-07T22:10:31.372Z,13.76
2023-04-07T22:12:58.593Z,13.92
2023-04-07T22:15:25.751Z,13.76
2023-04-07T22:17:53.057Z,13.86
2023-04-07T22:20:20.258Z,13.84
2023-04-07T22:22:47.507Z,13.79
2023-04-07T22:25:14.671Z,13.87
2023-04-07T22:27:41.773Z,14.35
2023-04-07T22:30:10.309Z,13.94
2023-04-07T22:32:37.807Z,14.28
2023-04-07T22:35:05.333Z,14.51
2023-04-07T22:37:32.469Z,13.64
2023-04-07T22:39:59.581Z,13.62
2023-04-07T22:42:26.693Z,12.85
2023-04-07T22:44:54.060Z,13.52
2023-04-07T22:47:22.649Z,13.38
2023-04-07T22:49:49.959Z,12.80
2023-04-07T22:52:17.161Z,12.10
2023-04-07T22:54:44.289Z,12.68
2023-04-07T22:57:11.711Z,12.86
2023-04-07T22:59:38.816Z,12.73
2023-04-07T23:02:06.601Z,12.64
2023-04-07T23:04:33.826Z,12.80
2023-04-07T23:07:01.571Z,12.90
2023-04-07T23:09:30.697Z,12.87
2023-04-07T23:11:58.244Z,13.38
2023-04-07T23:14:25.407Z,13.29
2023-04-07T23:16:54.680Z,13.20
2023-04-07T23:19:22.328Z,13.12
2023-04-07T23:21:49.779Z,12.14
2023-04-07T23:24:16.920Z,11.92
2023-04-07T23:26:44.015Z,12.34
2023-04-07T23:29:11.342Z,12.58
2023-04-07T23:31:38.466Z,12.56
2023-04-07T23:34:05.584Z,11.52
2023-04-07T23:36:33.447Z,12.02
2023-04-07T23:39:02.344Z,11.79
2023-04-07T23:41:29.557Z,11.94
2023-04-07T23:43:57.467Z,12.39
2023-04-07T23:46:24.787Z,12.49
2023-04-07T23:48:52.196Z,11.53
2023-04-07T23:51:19.892Z,11.40
2023-04-07T23:53:47.214Z,10.95
2023-04-07T23:56:14.366Z,11.06
2023-04-07T23:58:41.600Z,11.37
